Time;durP1;ratioP1;P1;durP2;ratioP2;P2;SDS_P1;SDS_P2;PMS_P1;PMS_P2;Temp;Humidity;BMP_temperature;BMP_pressure;BME280_temperature;BME280_humidity;BME280_pressure;Samples;Min_cycle;Max_cycle;Signal;HPM_P1;HPM_P2
2022/05/12 00:00:49;;;;;;;;;;;;;;;;;;5047603;28;19928;-56
2022/05/12 00:03:16;;;;;;;;;;;;;;;;;;5048287;28;19971;-58
2022/05/12 00:05:42;;;;;;;;;;;;;;;;;;5047907;28;19924;-55
2022/05/12 00:08:07;;;;;;;;;;;;;;;;;;5047715;28;20240;-57
2022/05/12 00:10:33;;;;;;;;;;;;;;;;;;5047872;28;19973;-54
2022/05/12 00:12:58;;;;;;;;;;;;;;;;;;5048324;28;19924;-57
2022/05/12 00:15:25;;;;;;;;;;;;;;;;;;5049611;28;20538;-56
2022/05/12 00:17:51;;;;;;;;;;;;;;;;;;5046179;28;20401;-57
2022/05/12 00:20:17;;;;;;;;;;;;;;;;;;5048675;28;19931;-57
2022/05/12 00:22:43;;;;;;;;;;;;;;;;;;5048783;28;19917;-58
2022/05/12 00:25:13;;;;;;;;;;;;;;;;;;5048915;28;19928;-56
2022/05/12 00:27:38;;;;;;;;;;;;;;;;;;5047651;28;19987;-57
2022/05/12 00:30:05;;;;;;;;;;;;;;;;;;5047690;28;19917;-57
2022/05/12 00:32:30;;;;;;;;;;;;;;;;;;5047860;28;19917;-57
2022/05/12 00:34:56;;;;;;;;;;;;;;;;;;5049014;28;19924;-57
2022/05/12 00:37:21;;;;;;;;;;;;;;;;;;5047854;28;20020;-58
2022/05/12 00:39:46;;;;;;;;;;;;;;;;;;5048123;28;19913;-56
2022/05/12 00:42:11;;;;;;;;;;;;;;;;;;5048234;28;19920;-56
2022/05/12 00:44:37;;;;;;;;;;;;;;;;;;5047899;28;20365;-55
2022/05/12 00:47:02;;;;;;;;;;;;;;;;;;5047653;28;19943;-57
2022/05/12 00:49:30;;;;;;;;;;;;;;;;;;5046272;28;19923;-56
2022/05/12 00:51:58;;;;;;;;;;;;;;;;;;5047924;28;19917;-57
2022/05/12 00:54:44;;;;;;;;;;;;;;;;;;5048147;28;19960;-55
2022/05/12 00:57:12;;;;;;;;;;;;;;;;;;5046930;28;19917;-56
2022/05/12 00:59:37;;;;;;;;;;;;;;;;;;5046653;28;20019;-56
2022/05/12 01:02:04;;;;;;;;;;;;;;;;;;5047915;28;20444;-55
2022/05/12 01:04:29;;;;;;;;;;;;;;;;;;5048505;28;19923;-56
2022/05/12 01:06:55;;;;;;;;;;;;;;;;;;5048239;28;19996;-55
2022/05/12 01:09:21;;;;;;;;;;;;;;;;;;5047243;28;19916;-56
2022/05/12 01:11:49;;;;;;;;;;;;;;;;;;5049727;28;19913;-57
2022/05/12 01:14:14;;;;;;;;;;;;;;;;;;5050505;28;20425;-56
2022/05/12 01:16:53;;;;;;;;;;;;;;;;;;5051229;28;19996;-57
2022/05/12 01:19:21;;;;;;;;;;;;;;;;;;5051505;28;19928;-58
2022/05/12 01:21:47;;;;;;;;;;;;;;;;;;5051570;28;19975;-55
2022/05/12 01:24:13;;;;;;;;;;;;;;;;;;5051140;28;19916;-57
2022/05/12 01:26:38;;;;;;;;;;;;;;;;;;5051418;28;19952;-57
2022/05/12 01:29:04;;;;;;;;;;;;;;;;;;5050673;28;19917;-56
2022/05/12 01:31:30;;;;;;;;;;;;;;;;;;5050984;28;19939;-56
2022/05/12 01:33:55;;;;;;;;;;;;;;;;;;5051863;28;20232;-57
2022/05/12 01:36:21;;;;;;;;;;;;;;;;;;5051119;28;20279;-58
2022/05/12 01:38:47;;;;;;;;;;;;;;;;;;5050416;28;20188;-57
2022/05/12 01:41:12;;;;;;;;;;;;;;;;;;5051075;28;19939;-56
2022/05/12 01:43:38;;;;;;;;;;;;;;;;;;5051046;28;20356;-57
2022/05/12 01:46:03;;;;;;;;;;;;;;;;;;5050890;28;19924;-56
2022/05/12 01:48:28;;;;;;;;;;;;;;;;;;5050206;28;20198;-56
2022/05/12 01:50:54;;;;;;;;;;;;;;;;;;5049657;28;19921;-56
2022/05/12 01:53:20;;;;;;;;;;;;;;;;;;5050630;28;19943;-56
2022/05/12 01:55:49;;;;;;;;;;;;;;;;;;5050482;28;19939;-56
2022/05/12 01:58:15;;;;;;;;;;;;;;;;;;5048049;28;19924;-57
2022/05/12 02:00:40;;;;;;;;;;;;;;;;;;5049946;28;19921;-55
2022/05/12 02:03:05;;;;;;;;;;;;;;;;;;5049513;28;19966;-57
2022/05/12 02:05:32;;;;;;;;;;;;;;;;;;5051396;28;20365;-56
2022/05/12 02:07:58;;;;;;;;;;;;;;;;;;5044506;28;20608;-57
2022/05/12 02:10:26;;;;;;;;;;;;;;;;;;5050763;28;19978;-57
2022/05/12 02:12:51;;;;;;;;;;;;;;;;;;5045590;28;19923;-56
2022/05/12 02:15:16;;;;;;;;;;;;;;;;;;5050825;28;19917;-57
2022/05/12 02:17:42;;;;;;;;;;;;;;;;;;5050483;28;20336;-55
2022/05/12 02:20:07;;;;;;;;;;;;;;;;;;5050338;28;19990;-56
2022/05/12 02:22:33;;;;;;;;;;;;;;;;;;5050253;28;19925;-55
2022/05/12 02:24:58;;;;;;;;;;;;;;;;;;5051021;28;19916;-57
2022/05/12 02:27:23;;;;;;;;;;;;;;;;;;5048724;28;20000;-56
2022/05/12 02:29:49;;;;;;;;;;;;;;;;;;5048514;28;20413;-56
2022/05/12 02:32:14;;;;;;;;;;;;;;;;;;5050082;28;19912;-57
2022/05/12 02:34:39;;;;;;;;;;;;;;;;;;5050467;28;20003;-55
2022/05/12 02:37:05;;;;;;;;;;;;;;;;;;5050212;28;19916;-56
2022/05/12 02:39:35;;;;;;;;;;;;;;;;;;5046260;28;19923;-55
2022/05/12 02:42:00;;;;;;;;;;;;;;;;;;5049621;28;19925;-55
2022/05/12 02:44:26;;;;;;;;;;;;;;;;;;5049912;28;19924;-57
2022/05/12 02:46:51;;;;;;;;;;;;;;;;;;5049432;28;19956;-57
2022/05/12 02:49:16;;;;;;;;;;;;;;;;;;5049051;28;19917;-56
2022/05/12 02:51:43;;;;;;;;;;;;;;;;;;5049978;28;19954;-57
2022/05/12 02:54:09;;;;;;;;;;;;;;;;;;5049980;28;19921;-56
2022/05/12 02:56:34;;;;;;;;;;;;;;;;;;5049597;28;19970;-55
2022/05/12 02:59:00;;;;;;;;;;;;;;;;;;5048899;28;19924;-57
2022/05/12 03:01:25;;;;;;;;;;;;;;;;;;5048657;28;19924;-56
2022/05/12 03:03:50;;;;;;;;;;;;;;;;;;5049843;28;19938;-55
2022/05/12 03:06:16;;;;;;;;;;;;;;;;;;5049182;28;19913;-55
2022/05/12 03:08:43;;;;;;;;;;;;;;;;;;5047738;28;19982;-56
2022/05/12 03:11:08;;;;;;;;;;;;;;;;;;5049305;28;19961;-56
2022/05/12 03:13:34;;;;;;;;;;;;;;;;;;5049862;28;19924;-57
2022/05/12 03:16:02;;;;;;;;;;;;;;;;;;5049837;28;19924;-57
2022/05/12 03:18:28;;;;;;;;;;;;;;;;;;5047787;28;19924;-55
2022/05/12 03:20:53;;;;;;;;;;;;;;;;;;5049953;28;20298;-56
2022/05/12 03:23:22;;;;;;;;;;;;;;;;;;5049375;28;19924;-57
2022/05/12 03:25:47;;;;;;;;;;;;;;;;;;5049430;28;19925;-56
2022/05/12 03:28:12;;;;;;;;;;;;;;;;;;5048164;28;19970;-55
2022/05/12 03:30:38;;;;;;;;;;;;;;;;;;5049767;28;19921;-57
2022/05/12 03:33:03;;;;;;;;;;;;;;;;;;5048173;28;20386;-56
2022/05/12 03:35:28;;;;;;;;;;;;;;;;;;5047159;28;20077;-57
2022/05/12 03:37:54;;;;;;;;;;;;;;;;;;5047631;28;20357;-57
2022/05/12 03:40:19;;;;;;;;;;;;;;;;;;5049389;28;19921;-58
2022/05/12 03:42:45;;;;;;;;;;;;;;;;;;5047407;28;19947;-56
2022/05/12 03:45:11;;;;;;;;;;;;;;;;;;5049846;28;19912;-56
2022/05/12 03:47:38;;;;;;;;;;;;;;;;;;5048387;28;19979;-56
2022/05/12 03:50:09;;;;;;;;;;;;;;;;;;5048422;28;19994;-57
2022/05/12 03:52:35;;;;;;;;;;;;;;;;;;5048353;28;19947;-55
2022/05/12 03:55:00;;;;;;;;;;;;;;;;;;5048826;28;19916;-57
2022/05/12 03:57:26;;;;;;;;;;;;;;;;;;5048911;28;20405;-56
2022/05/12 03:59:52;;;;;;;;;;;;;;;;;;5047803;28;19916;-56
2022/05/12 04:02:18;;;;;;;;;;;;;;;;;;5048051;28;19924;-55
2022/05/12 04:04:46;;;;;;;;;;;;;;;;;;5048090;28;19917;-58
2022/05/12 04:07:12;;;;;;;;;;;;;;;;;;5047600;28;19928;-57
2022/05/12 04:09:37;;;;;;;;;;;;;;;;;;5047892;28;20123;-55
2022/05/12 04:12:05;;;;;;;;;;;;;;;;;;5048659;28;19921;-56
2022/05/12 04:14:30;;;;;;;;;;;;;;;;;;5049379;28;19940;-55
2022/05/12 04:16:56;;;;;;;;;;;;;;;;;;5048019;28;20088;-57
2022/05/12 04:19:21;;;;;;;;;;;;;;;;;;5047405;28;20051;-55
2022/05/12 04:21:46;;;;;;;;;;;;;;;;;;5046791;28;19922;-57
2022/05/12 04:24:12;;;;;;;;;;;;;;;;;;5048466;28;19925;-57
2022/05/12 04:26:38;;;;;;;;;;;;;;;;;;5048126;28;20382;-56
2022/05/12 04:29:04;;;;;;;;;;;;;;;;;;5047849;28;19917;-56
2022/05/12 04:31:30;;;;;;;;;;;;;;;;;;5047067;28;19916;-58
2022/05/12 04:36:39;;;;;;;;;;;;;;;;;;5048549;28;19923;-56
2022/05/12 04:39:06;;;;;;;;;;;;;;;;;;5047505;28;19917;-56
2022/05/12 04:41:31;;;;;;;;;;;;;;;;;;5044687;28;19928;-56
2022/05/12 04:43:58;;;;;;;;;;;;;;;;;;5047832;28;19917;-58
2022/05/12 04:46:24;;;;;;;;;;;;;;;;;;5047963;28;19947;-57
2022/05/12 04:48:49;;;;;;;;;;;;;;;;;;5050812;28;19925;-58
2022/05/12 04:51:15;;;;;;;;;;;;;;;;;;5052049;28;19928;-55
2022/05/12 04:53:40;;;;;;;;;;;;;;;;;;5052203;28;19924;-55
2022/05/12 04:56:05;;;;;;;;;;;;;;;;;;5052195;28;19917;-56
2022/05/12 04:58:30;;;;;;;;;;;;;;;;;;5049688;28;19916;-56
2022/05/12 05:00:56;;;;;;;;;;;;;;;;;;5051710;28;19920;-57
2022/05/12 05:03:21;;;;;;;;;;;;;;;;;;5051640;28;20015;-56
2022/05/12 05:05:47;;;;;;;;;;;;;;;;;;5051955;28;19939;-56
2022/05/12 05:08:14;;;;;;;;;;;;;;;;;;5049413;28;20031;-57
2022/05/12 05:10:40;;;;;;;;;;;;;;;;;;5051539;28;19925;-60
2022/05/12 05:13:05;;;;;;;;;;;;;;;;;;5052122;28;19970;-55
2022/05/12 05:15:30;;;;;;;;;;;;;;;;;;5048706;28;19966;-55
2022/05/12 05:17:56;;;;;;;;;;;;;;;;;;5045339;28;19927;-54
2022/05/12 05:20:26;;;;;;;;;;;;;;;;;;5043889;28;20292;-55
2022/05/12 05:22:52;;;;;;;;;;;;;;;;;;5045021;28;19916;-58
2022/05/12 05:25:17;;;;;;;;;;;;;;;;;;5046339;28;19928;-57
2022/05/12 05:27:43;;;;;;;;;;;;;;;;;;5043494;28;19944;-56
2022/05/12 05:30:10;;;;;;;;;;;;;;;;;;5036496;28;21508;-56
2022/05/12 05:32:36;;;;;;;;;;;;;;;;;;5042975;28;20054;-56
2022/05/12 05:35:01;;;;;;;;;;;;;;;;;;5044200;28;20019;-56
2022/05/12 05:37:26;;;;;;;;;;;;;;;;;;5047181;28;19987;-56
2022/05/12 05:39:52;;;;;;;;;;;;;;;;;;5049820;28;19932;-57
2022/05/12 05:44:52;;;;;;;;;;;;;;;;;;1485755;26;19929;-79
2022/05/12 05:47:18;;;;;;;;;;;;;;;;;;5050873;28;19982;-80
2022/05/12 05:49:43;;;;;;;;;;;;;;;;;;5029003;28;19975;-78
2022/05/12 05:54:53;;;;;;;;;;;;;;;;;;5029615;28;19928;-80
2022/05/12 05:57:23;;;;;;;;;;;;;;;;;;5031300;28;19925;-78
2022/05/12 05:59:49;;;;;;;;;;;;;;;;;;5028715;28;20003;-78
2022/05/12 06:02:14;;;;;;;;;;;;;;;;;;5031403;28;19992;-79
2022/05/12 06:04:40;;;;;;;;;;;;;;;;;;5028483;28;19924;-78
2022/05/12 06:07:05;;;;;;;;;;;;;;;;;;5036448;28;19921;-78
2022/05/12 06:09:31;;;;;;;;;;;;;;;;;;5038746;28;19925;-80
2022/05/12 06:11:56;;;;;;;;;;;;;;;;;;5036309;28;19921;-79
2022/05/12 06:14:21;;;;;;;;;;;;;;;;;;5032470;28;19917;-78
2022/05/12 06:16:48;;;;;;;;;;;;;;;;;;5028029;28;20383;-80
2022/05/12 06:19:13;;;;;;;;;;;;;;;;;;5031818;28;20368;-79
2022/05/12 06:21:38;;;;;;;;;;;;;;;;;;5027000;28;19972;-76
2022/05/12 06:24:04;;;;;;;;;;;;;;;;;;5028116;28;19983;-78
2022/05/12 06:26:29;;;;;;;;;;;;;;;;;;5035268;28;19921;-77
2022/05/12 06:28:56;;;;;;;;;;;;;;;;;;5033669;28;19917;-78
2022/05/12 06:31:29;;;;;;;;;;;;;;;;;;5030293;28;19921;-79
2022/05/12 06:33:55;;;;;;;;;;;;;;;;;;5032777;28;20396;-77
2022/05/12 06:36:20;;;;;;;;;;;;;;;;;;5037657;28;19980;-80
2022/05/12 06:38:47;;;;;;;;;;;;;;;;;;5033324;28;19925;-79
2022/05/12 06:41:12;;;;;;;;;;;;;;;;;;5030805;28;19949;-78
2022/05/12 06:43:38;;;;;;;;;;;;;;;;;;5025028;28;19957;-79
2022/05/12 06:46:09;;;;;;;;;;;;;;;;;;5044847;28;20431;-79
2022/05/12 06:48:35;;;;;;;;;;;;;;;;;;5024321;28;19913;-79
2022/05/12 06:51:00;;;;;;;;;;;;;;;;;;5024043;28;19992;-79
2022/05/12 06:53:25;;;;;;;;;;;;;;;;;;5024960;28;20402;-80
2022/05/12 06:55:50;;;;;;;;;;;;;;;;;;5026550;28;19929;-78
2022/05/12 06:58:17;;;;;;;;;;;;;;;;;;5030080;28;19921;-78
2022/05/12 07:00:42;;;;;;;;;;;;;;;;;;5024931;28;20118;-76
2022/05/12 07:03:11;;;;;;;;;;;;;;;;;;5028063;28;20100;-79
2022/05/12 07:05:38;;;;;;;;;;;;;;;;;;5021424;28;19921;-80
2022/05/12 07:08:04;;;;;;;;;;;;;;;;;;5021935;28;19952;-79
2022/05/12 07:10:29;;;;;;;;;;;;;;;;;;5023129;28;19921;-79
2022/05/12 07:12:55;;;;;;;;;;;;;;;;;;5017793;28;19953;-79
2022/05/12 07:15:25;;;;;;;;;;;;;;;;;;5042288;28;20679;-79
2022/05/12 07:17:50;;;;;;;;;;;;;;;;;;5018436;28;19920;-79
2022/05/12 07:28:32;;;;;;;;;;;;;;;;;;5028455;28;19943;-79
2022/05/12 07:31:03;;;;;;;;;;;;;;;;;;5025767;28;19927;-79
2022/05/12 07:33:34;;;;;;;;;;;;;;;;;;5030526;28;19928;-80
2022/05/12 07:36:01;;;;;;;;;;;;;;;;;;5023116;28;19921;-80
2022/05/12 07:38:27;;;;;;;;;;;;;;;;;;5035238;28;19954;-81
2022/05/12 07:40:53;;;;;;;;;;;;;;;;;;5033798;28;19974;-80
2022/05/12 07:43:18;;;;;;;;;;;;;;;;;;5032972;28;19980;-78
2022/05/12 07:45:44;;;;;;;;;;;;;;;;;;5026626;28;20000;-79
2022/05/12 07:48:10;;;;;;;;;;;;;;;;;;5027776;28;19921;-80
2022/05/12 07:50:35;;;;;;;;;;;;;;;;;;5029518;28;19979;-79
2022/05/12 07:53:02;;;;;;;;;;;;;;;;;;5030684;28;19925;-79
2022/05/12 07:55:27;;;;;;;;;;;;;;;;;;5034406;28;20292;-78
2022/05/12 07:57:52;;;;;;;;;;;;;;;;;;5030611;28;19920;-80
2022/05/12 08:00:18;;;;;;;;;;;;;;;;;;5033222;28;20015;-80
2022/05/12 08:02:44;;;;;;;;;;;;;;;;;;5029391;28;19924;-80
2022/05/12 08:05:10;;;;;;;;;;;;;;;;;;5034233;28;20661;-81
2022/05/12 08:07:35;;;;;;;;;;;;;;;;;;5030858;28;20318;-81
2022/05/12 08:10:05;;;;;;;;;;;;;;;;;;5030485;28;20313;-81
2022/05/12 08:12:30;;;;;;;;;;;;;;;;;;5032683;28;19921;-80
2022/05/12 08:14:58;;;;;;;;;;;;;;;;;;5028286;28;19924;-80
2022/05/12 08:17:23;;;;;;;;;;;;;;;;;;5031547;28;20450;-80
2022/05/12 08:19:49;;;;;;;;;;;;;;;;;;5026646;28;19924;-79
2022/05/12 08:22:15;;;;;;;;;;;;;;;;;;5031844;28;19982;-80
2022/05/12 08:24:43;;;;;;;;;;;;;;;;;;5027080;28;19924;-80
2022/05/12 08:27:08;;;;;;;;;;;;;;;;;;5032346;28;19928;-80
2022/05/12 08:29:34;;;;;;;;;;;;;;;;;;5019564;28;19918;-80
2022/05/12 08:31:59;;;;;;;;;;;;;;;;;;5028079;28;19985;-79
2022/05/12 08:34:24;;;;;;;;;;;;;;;;;;5029130;28;19917;-79
2022/05/12 08:36:49;;;;;;;;;;;;;;;;;;5026294;28;19924;-79
2022/05/12 08:39:16;;;;;;;;;;;;;;;;;;5029447;28;19917;-79
2022/05/12 08:42:04;;;;;;;;;;;;;;;;;;5027791;28;19925;-82
2022/05/12 08:44:37;;;;;;;;;;;;;;;;;;5027247;28;20011;-78
2022/05/12 08:47:03;;;;;;;;;;;;;;;;;;5021488;28;20386;-79
2022/05/12 08:49:28;;;;;;;;;;;;;;;;;;5037525;28;19917;-77
2022/05/12 08:52:09;;;;;;;;;;;;;;;;;;5029647;28;20309;-81
2022/05/12 08:54:38;;;;;;;;;;;;;;;;;;5024061;28;19917;-79
2022/05/12 08:57:05;;;;;;;;;;;;;;;;;;5025336;28;19928;-79
2022/05/12 08:59:32;;;;;;;;;;;;;;;;;;5045749;28;20358;-77
2022/05/12 09:02:16;;;;;;;;;;;;;;;;;;5028086;28;19925;-79
2022/05/12 09:05:00;;;;;;;;;;;;;;;;;;5029943;28;19925;-79
2022/05/12 09:07:41;;;;;;;;;;;;;;;;;;5051891;28;19917;-79
2022/05/12 09:10:24;;;;;;;;;;;;;;;;;;5030588;28;19925;-80
2022/05/12 09:12:56;;;;;;;;;;;;;;;;;;5039069;28;19921;-79
2022/05/12 09:15:26;;;;;;;;;;;;;;;;;;5032809;28;20522;-79
2022/05/12 09:17:54;;;;;;;;;;;;;;;;;;5031995;28;19917;-79
2022/05/12 09:20:20;;;;;;;;;;;;;;;;;;5036213;28;19925;-76
2022/05/12 09:22:45;;;;;;;;;;;;;;;;;;5028418;28;19932;-79
2022/05/12 09:25:12;;;;;;;;;;;;;;;;;;5033900;28;19917;-79
2022/05/12 09:27:38;;;;;;;;;;;;;;;;;;5037283;28;19928;-78
2022/05/12 09:30:10;;;;;;;;;;;;;;;;;;5029095;28;20029;-79
2022/05/12 09:32:37;;;;;;;;;;;;;;;;;;5027547;28;19928;-77
2022/05/12 09:35:08;;;;;;;;;;;;;;;;;;5034095;28;19917;-78
2022/05/12 09:37:34;;;;;;;;;;;;;;;;;;5053653;28;19941;-79
2022/05/12 09:40:21;;;;;;;;;;;;;;;;;;5036626;28;19961;-80
2022/05/12 09:42:54;;;;;;;;;;;;;;;;;;5038528;28;19932;-80
2022/05/12 09:45:25;;;;;;;;;;;;;;;;;;5034869;28;20039;-81
2022/05/12 09:48:08;;;;;;;;;;;;;;;;;;5033060;28;19921;-79
2022/05/12 09:50:37;;;;;;;;;;;;;;;;;;5037919;28;19921;-79
2022/05/12 09:53:04;;;;;;;;;;;;;;;;;;5035369;28;20044;-80
2022/05/12 09:55:29;;;;;;;;;;;;;;;;;;5035909;28;19940;-78
2022/05/12 09:57:56;;;;;;;;;;;;;;;;;;5037118;28;19948;-79
2022/05/12 10:00:42;;;;;;;;;;;;;;;;;;5034971;28;19928;-78
2022/05/12 10:09:14;;;;;;;;;;;;;;;;;;4976538;28;19922;-79
2022/05/12 10:11:48;;;;;;;;;;;;;;;;;;5008137;28;19921;-79
2022/05/12 10:14:17;;;;;;;;;;;;;;;;;;5050672;28;19924;-80
2022/05/12 10:16:48;;;;;;;;;;;;;;;;;;5034150;28;19917;-79
2022/05/12 10:19:22;;;;;;;;;;;;;;;;;;5029054;28;19964;-79
2022/05/12 10:22:07;;;;;;;;;;;;;;;;;;5024455;28;19936;-78
2022/05/12 10:25:00;;;;;;;;;;;;;;;;;;5026658;28;19972;-78
2022/05/12 10:27:37;;;;;;;;;;;;;;;;;;5035151;28;19996;-78
2022/05/12 10:30:06;;;;;;;;;;;;;;;;;;5038154;28;19970;-78
2022/05/12 10:32:43;;;;;;;;;;;;;;;;;;5033141;28;19918;-78
2022/05/12 10:35:09;;;;;;;;;;;;;;;;;;5046752;28;19979;-77
2022/05/12 10:37:48;;;;;;;;;;;;;;;;;;5044581;28;19956;-77
2022/05/12 10:40:31;;;;;;;;;;;;;;;;;;5030332;28;19925;-79
2022/05/12 10:43:15;;;;;;;;;;;;;;;;;;5025558;28;20048;-78
2022/05/12 10:45:43;;;;;;;;;;;;;;;;;;5023117;28;20407;-78
2022/05/12 10:48:25;;;;;;;;;;;;;;;;;;5033369;28;19916;-78
2022/05/12 10:50:59;;;;;;;;;;;;;;;;;;5026807;28;19921;-79
2022/05/12 10:53:49;;;;;;;;;;;;;;;;;;5022116;28;19941;-78
2022/05/12 10:56:18;;;;;;;;;;;;;;;;;;5029237;28;19928;-78
2022/05/12 10:59:10;;;;;;;;;;;;;;;;;;5031447;28;19924;-78
2022/05/12 11:01:47;;;;;;;;;;;;;;;;;;5025021;28;19925;-79
2022/05/12 11:04:15;;;;;;;;;;;;;;;;;;5032034;28;20068;-79
2022/05/12 11:06:44;;;;;;;;;;;;;;;;;;5032906;28;19932;-80
2022/05/12 11:09:14;;;;;;;;;;;;;;;;;;5034461;28;19987;-80
2022/05/12 11:11:41;;;;;;;;;;;;;;;;;;5027692;28;19921;-79
2022/05/12 11:14:17;;;;;;;;;;;;;;;;;;5029975;28;20408;-81
2022/05/12 11:16:53;;;;;;;;;;;;;;;;;;5025149;28;19932;-79
2022/05/12 11:19:20;;;;;;;;;;;;;;;;;;5033582;28;19921;-79
2022/05/12 11:21:55;;;;;;;;;;;;;;;;;;5046411;28;19929;-78
2022/05/12 11:24:26;;;;;;;;;;;;;;;;;;5033636;28;19939;-79
2022/05/12 11:27:03;;;;;;;;;;;;;;;;;;5031340;28;19928;-79
2022/05/12 11:29:44;;;;;;;;;;;;;;;;;;5032852;28;19940;-79
2022/05/12 11:32:18;;;;;;;;;;;;;;;;;;5030530;28;20006;-80
2022/05/12 11:35:00;;;;;;;;;;;;;;;;;;5031098;28;19989;-78
2022/05/12 11:37:28;;;;;;;;;;;;;;;;;;5033112;28;19924;-77
2022/05/12 11:39:54;;;;;;;;;;;;;;;;;;5030250;28;19924;-79
2022/05/12 11:42:21;;;;;;;;;;;;;;;;;;5030963;28;20173;-79
2022/05/12 11:45:06;;;;;;;;;;;;;;;;;;5034829;28;20434;-79
2022/05/12 11:47:44;;;;;;;;;;;;;;;;;;5051817;28;20362;-79
2022/05/12 11:50:27;;;;;;;;;;;;;;;;;;5053760;28;19921;-80
2022/05/12 11:53:04;;;;;;;;;;;;;;;;;;5038030;28;19980;-79
2022/05/12 11:55:32;;;;;;;;;;;;;;;;;;5033954;28;20011;-80
2022/05/12 11:58:00;;;;;;;;;;;;;;;;;;5032626;28;20004;-80
2022/05/12 12:00:34;;;;;;;;;;;;;;;;;;5037284;28;19913;-77
2022/05/12 12:03:18;;;;;;;;;;;;;;;;;;5057129;28;19927;-80
2022/05/12 12:05:50;;;;;;;;;;;;;;;;;;5044467;28;20376;-80
2022/05/12 12:08:31;;;;;;;;;;;;;;;;;;5046283;28;19932;-79
2022/05/12 12:11:14;;;;;;;;;;;;;;;;;;5037683;28;20002;-79
2022/05/12 12:13:43;;;;;;;;;;;;;;;;;;5032408;28;19931;-79
2022/05/12 12:16:10;;;;;;;;;;;;;;;;;;5035342;28;19918;-79
2022/05/12 12:18:39;;;;;;;;;;;;;;;;;;5033077;28;19948;-80
2022/05/12 12:21:22;;;;;;;;;;;;;;;;;;5030676;28;19925;-80
2022/05/12 12:24:03;;;;;;;;;;;;;;;;;;5026502;28;19952;-82
2022/05/12 12:26:30;;;;;;;;;;;;;;;;;;5031111;28;20099;-80
2022/05/12 12:28:59;;;;;;;;;;;;;;;;;;5049389;28;20408;-80
2022/05/12 12:31:26;;;;;;;;;;;;;;;;;;5030515;28;19917;-81
2022/05/12 12:34:05;;;;;;;;;;;;;;;;;;5030269;28;19971;-79
2022/05/12 12:36:34;;;;;;;;;;;;;;;;;;5045979;28;19917;-78
2022/05/12 12:38:59;;;;;;;;;;;;;;;;;;5034265;28;20402;-78
2022/05/12 12:41:29;;;;;;;;;;;;;;;;;;5027280;28;20024;-77
2022/05/12 12:43:59;;;;;;;;;;;;;;;;;;5031641;28;20495;-78
2022/05/12 12:46:33;;;;;;;;;;;;;;;;;;5034669;28;19974;-78
2022/05/12 12:49:17;;;;;;;;;;;;;;;;;;5045942;28;19928;-79
2022/05/12 12:51:42;;;;;;;;;;;;;;;;;;5035004;28;19959;-78
2022/05/12 12:57:10;;;;;;;;;;;;;;;;;;5025628;28;19933;-78
2022/05/12 13:00:02;;;;;;;;;;;;;;;;;;5027367;28;19924;-80
2022/05/12 13:02:40;;;;;;;;;;;;;;;;;;5029479;28;19933;-78
2022/05/12 13:05:21;;;;;;;;;;;;;;;;;;5033636;28;19940;-78
2022/05/12 13:07:58;;;;;;;;;;;;;;;;;;5038947;28;19928;-80
2022/05/12 13:10:24;;;;;;;;;;;;;;;;;;5032508;28;19917;-81
2022/05/12 13:12:57;;;;;;;;;;;;;;;;;;5028504;28;19921;-81
2022/05/12 13:15:23;;;;;;;;;;;;;;;;;;5028277;28;19921;-81
2022/05/12 13:17:51;;;;;;;;;;;;;;;;;;5035014;28;20028;-79
2022/05/12 13:20:21;;;;;;;;;;;;;;;;;;5032479;28;19921;-81
2022/05/12 13:22:46;;;;;;;;;;;;;;;;;;5030543;28;21721;-81
2022/05/12 13:25:13;;;;;;;;;;;;;;;;;;5026866;28;19921;-82
2022/05/12 13:27:41;;;;;;;;;;;;;;;;;;5034121;28;19917;-81
2022/05/12 13:30:14;;;;;;;;;;;;;;;;;;5032183;28;19920;-81
2022/05/12 13:32:48;;;;;;;;;;;;;;;;;;5030922;28;19984;-81
2022/05/12 13:35:14;;;;;;;;;;;;;;;;;;5040372;28;19925;-82
2022/05/12 13:37:44;;;;;;;;;;;;;;;;;;5042601;28;19913;-81
2022/05/12 13:40:12;;;;;;;;;;;;;;;;;;5042608;28;19923;-81
2022/05/12 13:42:46;;;;;;;;;;;;;;;;;;5040846;28;19979;-81
2022/05/12 13:45:22;;;;;;;;;;;;;;;;;;5060169;28;19917;-81
2022/05/12 13:47:49;;;;;;;;;;;;;;;;;;5037734;28;19928;-81
2022/05/12 13:50:15;;;;;;;;;;;;;;;;;;5035286;28;20429;-82
2022/05/12 13:52:45;;;;;;;;;;;;;;;;;;5034718;28;20022;-80
2022/05/12 13:55:19;;;;;;;;;;;;;;;;;;5027828;28;20379;-80
2022/05/12 13:57:47;;;;;;;;;;;;;;;;;;5029499;28;19924;-79
2022/05/12 14:00:12;;;;;;;;;;;;;;;;;;5027435;28;19945;-80
2022/05/12 14:02:46;;;;;;;;;;;;;;;;;;5029346;28;20012;-81
2022/05/12 14:05:12;;;;;;;;;;;;;;;;;;5030460;28;19933;-80
2022/05/12 14:07:38;;;;;;;;;;;;;;;;;;5028249;28;20043;-81
2022/05/12 14:10:15;;;;;;;;;;;;;;;;;;5028090;28;19997;-80
2022/05/12 14:19:13;;;;;;;;;;;;;;;;;;5026766;28;20011;-80
2022/05/12 14:20:54;;;;;;;;;;;;;;;;;;5028879;28;20442;-80
2022/05/12 14:23:19;;;;;;;;;;;;;;;;;;5029961;28;19925;-80
2022/05/12 14:25:45;;;;;;;;;;;;;;;;;;5029847;28;19917;-80
2022/05/12 14:28:10;;;;;;;;;;;;;;;;;;5028524;28;19929;-79
2022/05/12 14:30:36;;;;;;;;;;;;;;;;;;5027119;28;19917;-79
2022/05/12 14:33:01;;;;;;;;;;;;;;;;;;5028776;28;19917;-80
2022/05/12 14:35:28;;;;;;;;;;;;;;;;;;5031121;28;20069;-80
2022/05/12 14:37:54;;;;;;;;;;;;;;;;;;5031543;28;20008;-80
2022/05/12 14:40:22;;;;;;;;;;;;;;;;;;5031193;28;19980;-80
2022/05/12 14:42:48;;;;;;;;;;;;;;;;;;5027257;28;19922;-80
2022/05/12 14:45:14;;;;;;;;;;;;;;;;;;5029256;28;20461;-80
2022/05/12 14:47:42;;;;;;;;;;;;;;;;;;5026582;28;19943;-80
2022/05/12 14:50:07;;;;;;;;;;;;;;;;;;5050807;28;19917;-80
2022/05/12 14:52:33;;;;;;;;;;;;;;;;;;5032412;28;19936;-80
2022/05/12 14:54:58;;;;;;;;;;;;;;;;;;5032262;28;19924;-79
2022/05/12 14:57:24;;;;;;;;;;;;;;;;;;5035409;28;20395;-80
2022/05/12 14:59:50;;;;;;;;;;;;;;;;;;5032870;28;19917;-80
2022/05/12 15:02:18;;;;;;;;;;;;;;;;;;5033501;28;20371;-79
2022/05/12 15:04:43;;;;;;;;;;;;;;;;;;5033808;28;19917;-79
2022/05/12 15:07:12;;;;;;;;;;;;;;;;;;5024699;28;19940;-78
2022/05/12 15:09:39;;;;;;;;;;;;;;;;;;5030179;28;20399;-78
2022/05/12 15:12:04;;;;;;;;;;;;;;;;;;5033732;28;19928;-80
2022/05/12 15:14:30;;;;;;;;;;;;;;;;;;5028687;28;19921;-80
2022/05/12 15:16:56;;;;;;;;;;;;;;;;;;5046280;28;19917;-79
2022/05/12 15:19:22;;;;;;;;;;;;;;;;;;5031560;28;19925;-78
2022/05/12 15:21:47;;;;;;;;;;;;;;;;;;5031398;28;19927;-77
2022/05/12 15:24:13;;;;;;;;;;;;;;;;;;5026684;28;19921;-77
2022/05/12 15:26:40;;;;;;;;;;;;;;;;;;5027760;28;19929;-78
2022/05/12 15:29:05;;;;;;;;;;;;;;;;;;5029220;28;20257;-78
2022/05/12 15:31:31;;;;;;;;;;;;;;;;;;5034267;28;19932;-77
2022/05/12 15:33:57;;;;;;;;;;;;;;;;;;5033035;28;20023;-77
2022/05/12 15:36:31;;;;;;;;;;;;;;;;;;5033169;28;19960;-78
2022/05/12 15:38:57;;;;;;;;;;;;;;;;;;5031369;28;19960;-77
2022/05/12 15:41:22;;;;;;;;;;;;;;;;;;5034696;28;20057;-78
2022/05/12 15:43:48;;;;;;;;;;;;;;;;;;5031191;28;20420;-79
2022/05/12 15:46:14;;;;;;;;;;;;;;;;;;5024000;28;19924;-78
2022/05/12 15:48:42;;;;;;;;;;;;;;;;;;5025999;28;20020;-78
2022/05/12 15:51:08;;;;;;;;;;;;;;;;;;5028295;28;19960;-78
2022/05/12 15:53:33;;;;;;;;;;;;;;;;;;5026929;28;19975;-78
2022/05/12 15:55:59;;;;;;;;;;;;;;;;;;5026018;28;20402;-80
2022/05/12 15:58:24;;;;;;;;;;;;;;;;;;5025899;28;19921;-78
2022/05/12 16:00:49;;;;;;;;;;;;;;;;;;5026986;28;19929;-81
2022/05/12 16:03:16;;;;;;;;;;;;;;;;;;5022251;28;19917;-79
2022/05/12 16:05:43;;;;;;;;;;;;;;;;;;5028142;28;19917;-80
2022/05/12 16:08:09;;;;;;;;;;;;;;;;;;5028778;28;19921;-81
2022/05/12 16:10:35;;;;;;;;;;;;;;;;;;5031690;28;20479;-79
2022/05/12 16:13:01;;;;;;;;;;;;;;;;;;5030359;28;20303;-78
2022/05/12 16:15:30;;;;;;;;;;;;;;;;;;5027940;28;19999;-80
2022/05/12 16:18:00;;;;;;;;;;;;;;;;;;5029890;28;19979;-82
2022/05/12 16:20:26;;;;;;;;;;;;;;;;;;5025707;28;20391;-82
2022/05/12 16:22:53;;;;;;;;;;;;;;;;;;5033537;28;19917;-81
2022/05/12 16:25:22;;;;;;;;;;;;;;;;;;5029280;28;19997;-80
2022/05/12 16:27:56;;;;;;;;;;;;;;;;;;5030473;28;19948;-78
2022/05/12 16:30:23;;;;;;;;;;;;;;;;;;5032086;28;20450;-79
2022/05/12 16:32:50;;;;;;;;;;;;;;;;;;5030172;28;19975;-80
2022/05/12 16:35:16;;;;;;;;;;;;;;;;;;5031383;28;19924;-78
2022/05/12 16:37:41;;;;;;;;;;;;;;;;;;5030476;28;20024;-79
2022/05/12 16:40:07;;;;;;;;;;;;;;;;;;5029372;28;19947;-81
2022/05/12 16:42:34;;;;;;;;;;;;;;;;;;5035887;28;19925;-80
2022/05/12 16:45:00;;;;;;;;;;;;;;;;;;5028148;28;20003;-78
2022/05/12 16:47:26;;;;;;;;;;;;;;;;;;5029719;28;20394;-77
2022/05/12 16:49:51;;;;;;;;;;;;;;;;;;5034528;28;19923;-79
2022/05/12 16:52:17;;;;;;;;;;;;;;;;;;5034311;28;19917;-80
2022/05/12 16:54:44;;;;;;;;;;;;;;;;;;5032189;28;19925;-77
2022/05/12 16:57:11;;;;;;;;;;;;;;;;;;5028028;28;19917;-80
2022/05/12 16:59:38;;;;;;;;;;;;;;;;;;5049610;28;19928;-79
2022/05/12 17:02:04;;;;;;;;;;;;;;;;;;5038193;28;19975;-78
2022/05/12 17:04:29;;;;;;;;;;;;;;;;;;5031395;28;19921;-80
2022/05/12 17:06:57;;;;;;;;;;;;;;;;;;5029330;28;19917;-79
2022/05/12 17:09:23;;;;;;;;;;;;;;;;;;5034965;28;19917;-81
2022/05/12 17:11:51;;;;;;;;;;;;;;;;;;5034657;28;19924;-82
2022/05/12 17:14:16;;;;;;;;;;;;;;;;;;5025529;28;19924;-82
2022/05/12 17:16:42;;;;;;;;;;;;;;;;;;5026833;28;19917;-84
2022/05/12 17:19:07;;;;;;;;;;;;;;;;;;5028643;28;19925;-83
2022/05/12 17:21:33;;;;;;;;;;;;;;;;;;5026991;28;19921;-83
2022/05/12 17:24:00;;;;;;;;;;;;;;;;;;5028818;28;20367;-83